Birkbeck, Illinois
Current Conditions -  °F | °C
As of 9:15 AM on Monday 24 Nov 2014 (Local Time) from KAAA Reporting Station
Overcast Overcast  
Wind Chill: -3°   Ceiling: 1400
Heat Index:   Visibility: 10mi
Dew Point:   Wind: 13mph
Humidity: 89%   Direction: 260°W
Pressure: 29.47"   Gusts: 26mph
Location:  40.143°N, 88.9637°W
Report Text: KAAA 241515Z AUTO 26011G23KT 230V290 10SM OVC014 02/00 A2947 RMK AO2 P0001 T00170000
Loading
Personal Weather Stations






























Interactive Weather Map New forecast layout! Learn more

10-Day Weather Forecast

Advertisements
Track Severe Weather on mobile